createdAt,value
2018-03-23T00:03:42.442Z,100588.27
2018-03-23T00:08:45.130Z,100584.94
2018-03-23T00:13:47.698Z,100584.12
2018-03-23T00:18:50.173Z,100575.59
2018-03-23T00:23:52.701Z,100578.58
2018-03-23T00:28:55.198Z,100582.21
2018-03-23T00:33:57.710Z,100588.41
2018-03-23T00:39:00.166Z,100584.66
2018-03-23T00:44:02.665Z,100583.25
2018-03-23T00:49:05.169Z,100589.52
2018-03-23T00:54:07.656Z,100585.20
2018-03-23T00:59:10.133Z,100575.50
2018-03-23T01:04:12.602Z,100572.75
2018-03-23T01:09:15.176Z,100565.09
2018-03-23T01:14:17.749Z,100557.73
2018-03-23T01:19:20.247Z,100563.92
2018-03-23T01:24:22.801Z,100566.31
2018-03-23T01:29:25.345Z,100565.95
2018-03-23T01:34:27.816Z,100565.95
2018-03-23T01:39:30.273Z,100562.31
2018-03-23T01:44:32.729Z,100563.94
2018-03-23T01:49:35.207Z,100561.63
2018-03-23T01:54:37.686Z,100558.08
2018-03-23T01:59:40.159Z,100559.28
2018-03-23T02:04:42.637Z,100555.84
2018-03-23T02:09:45.145Z,100553.94
2018-03-23T02:14:48.452Z,100554.72
2018-03-23T02:19:50.958Z,100560.77
2018-03-23T02:24:53.420Z,100553.31
2018-03-23T02:29:55.880Z,100549.02
2018-03-23T02:34:58.393Z,100541.62
2018-03-23T02:40:00.888Z,100541.58
2018-03-23T02:45:03.366Z,100545.73
2018-03-23T02:50:05.853Z,100539.29
2018-03-23T02:55:08.307Z,100543.28
2018-03-23T03:00:10.769Z,100539.14
2018-03-23T03:05:13.269Z,100541.69
2018-03-23T03:10:15.778Z,100540.12
2018-03-23T03:15:18.258Z,100556.52
2018-03-23T03:20:20.748Z,100554.36
2018-03-23T03:25:23.236Z,100551.75
2018-03-23T03:30:25.734Z,100558.63
2018-03-23T03:35:28.224Z,100561.95
2018-03-23T03:40:31.669Z,100556.30
2018-03-23T03:45:34.139Z,100554.63
2018-03-23T03:50:36.635Z,100550.77
2018-03-23T03:55:39.107Z,100553.47
2018-03-23T04:00:41.572Z,100554.45
2018-03-23T04:05:44.088Z,100557.50
2018-03-23T04:10:46.642Z,100549.03
2018-03-23T04:15:49.178Z,100551.90
2018-03-23T04:20:51.682Z,100556.61
2018-03-23T04:25:54.229Z,100547.88
2018-03-23T04:30:56.677Z,100553.11
2018-03-23T04:35:59.225Z,100548.09
2018-03-23T04:41:01.700Z,100539.86
2018-03-23T04:46:04.215Z,100537.48
2018-03-23T04:51:06.700Z,100535.27
2018-03-23T04:56:09.143Z,100529.52
2018-03-23T05:01:11.610Z,100528.67
2018-03-23T05:06:14.105Z,100521.16
2018-03-23T05:11:16.718Z,100522.22
2018-03-23T05:16:19.352Z,100524.53
2018-03-23T05:21:21.893Z,100522.84
2018-03-23T05:26:24.427Z,100523.84
2018-03-23T05:31:26.888Z,100521.04
2018-03-23T05:36:29.367Z,100523.74
2018-03-23T05:41:32.591Z,100531.08
2018-03-23T05:46:35.066Z,100530.13
2018-03-23T05:51:37.866Z,100523.23
2018-03-23T05:56:40.368Z,100528.84
2018-03-23T06:01:42.856Z,100528.13
2018-03-23T06:06:45.448Z,100532.20
2018-03-23T06:11:47.987Z,100528.36
2018-03-23T06:16:50.474Z,100530.25
2018-03-23T06:21:53.036Z,100526.05
2018-03-23T06:26:55.516Z,100529.87
2018-03-23T06:31:58.004Z,100533.71
2018-03-23T06:37:00.492Z,100527.97
2018-03-23T06:42:02.971Z,100529.48
2018-03-23T06:47:05.461Z,100531.47
2018-03-23T06:52:07.965Z,100529.97
2018-03-23T06:57:10.471Z,100532.91
2018-03-23T07:02:12.948Z,100533.40
2018-03-23T07:07:15.458Z,100540.55
2018-03-23T07:12:17.944Z,100546.30
2018-03-23T07:17:20.517Z,100544.63
2018-03-23T07:22:23.216Z,100551.17
2018-03-23T07:27:25.753Z,100551.36
2018-03-23T07:32:28.184Z,100551.60
2018-03-23T07:37:30.641Z,100560.84
2018-03-23T07:42:33.107Z,100556.72
2018-03-23T07:47:35.564Z,100562.73
2018-03-23T07:52:38.040Z,100559.86
2018-03-23T07:57:41.145Z,100559.21
2018-03-23T08:02:43.689Z,100558.45
2018-03-23T08:07:46.420Z,100561.27
2018-03-23T08:12:48.905Z,100556.73
2018-03-23T08:17:51.415Z,100547.59
2018-03-23T08:22:53.927Z,100546.90
2018-03-23T08:27:56.414Z,100544.55
2018-03-23T08:32:58.933Z,100537.59
2018-03-23T08:38:01.403Z,100536.74
2018-03-23T08:43:03.854Z,100537.09
2018-03-23T08:48:06.355Z,100531.93
2018-03-23T08:53:08.820Z,100535.97
2018-03-23T08:58:11.322Z,100537.59
2018-03-23T09:03:14.865Z,100534.09
2018-03-23T09:08:17.425Z,100533.73
2018-03-23T09:18:45.766Z,100532.50
2018-03-23T09:23:48.278Z,100544.62
2018-03-23T09:28:50.738Z,100543.78
2018-03-23T09:33:53.243Z,100549.37
2018-03-23T09:38:55.694Z,100541.84
2018-03-23T09:43:58.158Z,100541.50
2018-03-23T09:49:00.635Z,100529.85
2018-03-23T09:54:03.112Z,100524.24
2018-03-23T09:59:05.567Z,100530.28
2018-03-23T10:04:08.177Z,100525.09
2018-03-23T10:09:10.558Z,100521.73
2018-03-23T10:14:13.021Z,100525.63
2018-03-23T10:19:15.521Z,100528.03
2018-03-23T10:24:18.034Z,100526.42
2018-03-23T10:29:20.507Z,100526.84
2018-03-23T10:34:23.025Z,100517.83
2018-03-23T10:39:25.502Z,100510.62
2018-03-23T10:44:27.977Z,100510.93
2018-03-23T10:49:30.494Z,100514.28
2018-03-23T10:54:33.035Z,100515.75
2018-03-23T10:59:35.525Z,100507.68
2018-03-23T11:04:38.005Z,100512.61
2018-03-23T11:09:40.488Z,100516.09
2018-03-23T11:14:42.989Z,100514.53
2018-03-23T11:19:45.477Z,100521.66
2018-03-23T11:24:47.975Z,100512.34
2018-03-23T11:29:50.462Z,100506.87
2018-03-23T11:34:53.182Z,100507.30
2018-03-23T11:39:55.697Z,100498.40
2018-03-23T11:44:58.155Z,100489.45
2018-03-23T11:50:00.643Z,100490.00
2018-03-23T11:55:03.126Z,100489.05
2018-03-23T12:00:05.571Z,100486.15
2018-03-23T12:05:08.125Z,100486.36
2018-03-23T12:10:10.685Z,100488.33
2018-03-23T12:15:13.174Z,100481.67
2018-03-23T12:20:18.150Z,100479.03
2018-03-23T12:25:21.829Z,100476.22
2018-03-23T12:30:24.490Z,100469.05
2018-03-23T12:35:29.231Z,100470.28
2018-03-23T12:40:31.748Z,100465.91
2018-03-23T12:45:34.284Z,100461.66
2018-03-23T12:50:36.703Z,100454.98
2018-03-23T12:55:39.169Z,100453.70
2018-03-23T13:00:41.660Z,100449.77
2018-03-23T13:05:44.163Z,100451.24
2018-03-23T13:10:47.050Z,100441.41
2018-03-23T13:15:49.563Z,100437.19
2018-03-23T13:20:52.110Z,100431.31
2018-03-23T13:25:54.587Z,100425.75
2018-03-23T13:30:57.065Z,100425.98
2018-03-23T13:35:59.559Z,100422.44
2018-03-23T13:41:02.039Z,100413.81
2018-03-23T13:46:05.882Z,100412.22
2018-03-23T13:51:10.735Z,100418.12
2018-03-23T13:56:17.691Z,100407.72
2018-03-23T14:01:27.175Z,100404.84
2018-03-23T14:06:32.163Z,100403.81
2018-03-23T14:11:37.445Z,100398.86
2018-03-23T14:16:43.307Z,100396.41
2018-03-23T14:21:48.428Z,100382.38
2018-03-23T14:26:51.041Z,100380.07
2018-03-23T14:31:55.373Z,100383.45
2018-03-23T14:36:59.702Z,100382.25
2018-03-23T14:42:02.236Z,100375.49
2018-03-23T14:47:04.695Z,100374.36
2018-03-23T14:52:10.299Z,100365.86
2018-03-23T14:57:14.879Z,100369.48
2018-03-23T15:02:18.719Z,100364.41
2018-03-23T15:07:23.304Z,100360.42
2018-03-23T15:12:25.771Z,100357.53
2018-03-23T15:17:30.578Z,100352.96
2018-03-23T15:22:35.498Z,100350.67
2018-03-23T15:27:39.470Z,100352.36
2018-03-23T15:32:44.165Z,100357.00
2018-03-23T15:37:50.022Z,100347.91
2018-03-23T15:42:54.306Z,100342.07
2018-03-23T15:48:00.514Z,100353.20
2018-03-23T15:53:06.171Z,100350.49
2018-03-23T15:58:08.996Z,100344.65
2018-03-23T16:03:11.458Z,100342.91
2018-03-23T16:08:14.104Z,100349.55
2018-03-23T16:13:16.663Z,100347.47
2018-03-23T16:18:31.662Z,100351.02
2018-03-23T16:23:34.081Z,100352.63
2018-03-23T16:28:36.563Z,100352.05
2018-03-23T16:33:39.065Z,100341.73
2018-03-23T16:38:42.224Z,100337.95
2018-03-23T16:43:45.182Z,100342.86
2018-03-23T16:48:48.325Z,100345.28
2018-03-23T16:53:50.871Z,100348.16
2018-03-23T16:58:53.342Z,100348.63
2018-03-23T17:03:55.866Z,100346.33
2018-03-23T17:08:59.301Z,100351.18
2018-03-23T17:14:01.779Z,100353.13
2018-03-23T17:19:04.246Z,100352.58
2018-03-23T17:29:30.904Z,100353.66
2018-03-23T17:34:33.401Z,100356.71
2018-03-23T17:39:35.898Z,100352.91
2018-03-23T17:44:38.360Z,100357.41
2018-03-23T17:49:40.845Z,100365.22
2018-03-23T17:54:43.411Z,100360.31
2018-03-23T17:59:46.007Z,100355.92
2018-03-23T18:04:48.574Z,100359.03
2018-03-23T18:09:52.244Z,100360.11
2018-03-23T18:14:54.740Z,100361.91
2018-03-23T18:19:57.237Z,100372.83
2018-03-23T18:24:59.857Z,100372.66
2018-03-23T18:30:02.326Z,100374.91
2018-03-23T18:35:04.984Z,100376.30
2018-03-23T18:40:08.042Z,100373.30
2018-03-23T18:45:11.468Z,100369.95
2018-03-23T18:50:16.694Z,100370.38
2018-03-23T18:55:19.812Z,100373.83
2018-03-23T19:00:22.857Z,100379.76
2018-03-23T19:05:25.552Z,100376.58
2018-03-23T19:10:28.506Z,100373.77
2018-03-23T19:15:31.295Z,100379.04
2018-03-23T19:20:34.076Z,100378.11
2018-03-23T19:25:36.600Z,100381.06
2018-03-23T19:30:40.208Z,100378.20
2018-03-23T19:35:42.684Z,100380.34
2018-03-23T19:40:45.184Z,100378.84
2018-03-23T19:45:47.678Z,100382.92
2018-03-23T19:50:50.162Z,100384.46
2018-03-23T19:55:52.626Z,100379.71
2018-03-23T20:00:58.049Z,100373.08
2018-03-23T20:06:01.523Z,100374.48
2018-03-23T20:11:06.142Z,100383.20
2018-03-23T20:16:10.932Z,100383.02
2018-03-23T20:21:18.261Z,100381.00
2018-03-23T20:26:23.244Z,100374.88
2018-03-23T20:31:32.695Z,100384.31
2018-03-23T20:36:37.650Z,100385.03
2018-03-23T20:41:41.039Z,100390.11
2018-03-23T20:46:46.378Z,100384.40
2018-03-23T20:51:51.435Z,100387.67
2018-03-23T20:56:56.670Z,100384.61
2018-03-23T21:02:00.679Z,100380.61
2018-03-23T21:07:03.603Z,100373.64
2018-03-23T21:12:06.095Z,100368.77
2018-03-23T21:17:08.676Z,100369.70
2018-03-23T21:22:11.247Z,100363.96
2018-03-23T21:27:14.497Z,100370.90
2018-03-23T21:32:19.255Z,100372.17
2018-03-23T21:37:24.037Z,100366.52
2018-03-23T21:42:29.593Z,100366.37
2018-03-23T21:47:34.320Z,100365.30
2018-03-23T21:52:37.291Z,100365.50
2018-03-23T21:57:40.030Z,100366.70
2018-03-23T22:02:42.750Z,100365.98
2018-03-23T22:07:45.303Z,100358.02
2018-03-23T22:12:47.896Z,100361.02
2018-03-23T22:17:50.386Z,100361.92
2018-03-23T22:22:53.165Z,100351.69
2018-03-23T22:27:55.690Z,100350.20
2018-03-23T22:32:58.152Z,100343.66
2018-03-23T22:38:01.323Z,100343.80
2018-03-23T22:43:03.796Z,100342.63
2018-03-23T22:48:06.383Z,100349.65
2018-03-23T22:53:09.052Z,100339.30
2018-03-23T22:58:11.555Z,100341.38
2018-03-23T23:03:14.100Z,100331.48
2018-03-23T23:08:16.795Z,100338.20
2018-03-23T23:13:19.379Z,100337.84
2018-03-23T23:18:21.883Z,100348.57
2018-03-23T23:23:24.381Z,100340.42
2018-03-23T23:28:27.020Z,100350.14
2018-03-23T23:33:29.556Z,100346.13
2018-03-23T23:38:32.088Z,100356.87
2018-03-23T23:43:34.862Z,100349.08
2018-03-23T23:48:37.360Z,100345.11
2018-03-23T23:53:39.881Z,100346.24
2018-03-23T23:58:42.385Z,100345.61
